»·PEaware :: N101JP KMYF-KTOA

N101JP :: KMYF-KTOA

FLIGHT INFORMATION

Flight Status: Arrived
Operator: Privately registered:
United States
More flights under this callsign
Pilot: James T. (870)
Aircraft: PILATUS PC-12 EAGLE
(PC12)
More flights by this aircraft type
Origin: KMYF Montgomery
United States
Destination: KTOA Zamperini
United States
More flights between these airports :: More routes between these airports
Route: MZB293 SLI148 SLI
File this flight plan on PilotEdge
Remarks:
Altitude:
(Current/Filed)
80ft
Speed:
(Current/Filed)
200kts
Departed: 03-Apr-15 02:28 PM
Arrived: 03-Apr-15 03:05 PM
Distance/Time
Traveled:
85nm/0:36
Distance/Time
To Go:
Arrived

Flight Plot

Page will automatically refresh every two minutes.


Map Options




Map Legend


Flown Route
Filed Route
Departure Airport
Arrival Airport
Navaid (VOR, NDB)
Fix

Horizontal Profiles

Position Reports

Time Latitude Longitude Heading Altitude Ground
Speed
03-Apr-15 14:14 32.813612 -117.141324 29 432ft 0kts
03-Apr-15 14:15 32.813612 -117.141324 29 432ft 0kts
03-Apr-15 14:16 32.813612 -117.141324 29 432ft 0kts
03-Apr-15 14:17 32.813612 -117.141324 29 432ft 0kts
03-Apr-15 14:18 32.813612 -117.141324 29 432ft 0kts
03-Apr-15 14:19 32.813612 -117.141324 29 432ft 0kts
03-Apr-15 14:20 32.813612 -117.141324 29 432ft 0kts
03-Apr-15 14:21 32.813773 -117.141191 39 433ft 5kts
03-Apr-15 14:22 32.813496 -117.138523 109 433ft 10kts
03-Apr-15 14:23 32.812268 -117.135437 115 432ft 10kts
03-Apr-15 14:24 32.811371 -117.132327 58 433ft 9kts
03-Apr-15 14:25 32.812012 -117.131470 28 432ft 0kts
03-Apr-15 14:26 32.812103 -117.131410 27 433ft 4kts
03-Apr-15 14:27 32.818371 -117.143973 294 756ft 103kts
03-Apr-15 14:28 32.826734 -117.189158 283 2187ft 155kts
03-Apr-15 14:29 32.836100 -117.242275 283 3432ft 171kts
03-Apr-15 14:30 32.845812 -117.292643 311 5141ft 150kts
03-Apr-15 14:31 32.879649 -117.318882 325 6577ft 146kts
03-Apr-15 14:32 32.912506 -117.344919 324 7851ft 146kts
03-Apr-15 14:33 32.950999 -117.375839 324 8014ft 200kts
03-Apr-15 14:34 32.991062 -117.408162 324 8005ft 219kts
03-Apr-15 14:35 33.051024 -117.453070 319 8004ft 224kts
03-Apr-15 14:36 33.091960 -117.489224 323 7997ft 225kts
03-Apr-15 14:37 33.142284 -117.530434 323 7992ft 225kts
03-Apr-15 14:38 33.189856 -117.569042 323 7990ft 226kts
03-Apr-15 14:39 33.189856 -117.569042 323 7990ft 226kts
03-Apr-15 14:40 33.189856 -117.569042 323 7990ft 226kts
03-Apr-15 14:41 33.189856 -117.569042 323 7990ft 226kts
03-Apr-15 14:42 33.189856 -117.569042 323 7990ft 226kts
03-Apr-15 14:43 33.189856 -117.569042 323 7990ft 226kts
03-Apr-15 14:44 33.189856 -117.569042 323 7990ft 226kts
03-Apr-15 14:45 33.210814 -117.586077 322 7989ft 227kts
03-Apr-15 14:46 33.261109 -117.627006 322 7970ft 230kts
03-Apr-15 14:47 33.312714 -117.669016 322 7969ft 232kts
03-Apr-15 14:48 33.364454 -117.710985 323 7250ft 231kts
03-Apr-15 14:49 33.406815 -117.765342 307 5997ft 220kts
03-Apr-15 14:50 33.445135 -117.819752 308 5978ft 216kts
03-Apr-15 14:51 33.484051 -117.875026 308 4719ft 224kts
03-Apr-15 14:52 33.522214 -117.929267 308 3970ft 203kts
03-Apr-15 14:53 33.554123 -117.974727 307 3974ft 184kts
03-Apr-15 14:54 33.586256 -118.020575 306 3976ft 176kts
03-Apr-15 14:55 33.617596 -118.065360 306 3980ft 176kts
03-Apr-15 14:56 33.647011 -118.107384 305 3522ft 158kts
03-Apr-15 14:57 33.675240 -118.147665 306 2062ft 158kts
03-Apr-15 14:58 33.700229 -118.183454 305 1982ft 128kts
03-Apr-15 14:59 33.722227 -118.216377 305 1990ft 124kts
03-Apr-15 15:00 33.743310 -118.248078 305 1988ft 115kts
03-Apr-15 15:01 33.764665 -118.280240 306 1040ft 129kts
03-Apr-15 15:02 33.784903 -118.310723 305 677ft 99kts
03-Apr-15 15:03 33.801596 -118.335895 305 122ft 90kts
03-Apr-15 15:04 33.805595 -118.342875 284 109ft 0kts
03-Apr-15 15:05 33.805761 -118.343459 286 109ft 6kts
03-Apr-15 15:06 33.805528 -118.345381 213 108ft 6kts
03-Apr-15 15:07 33.803813 -118.345684 232 109ft 8kts
03-Apr-15 15:08 33.803835 -118.345594 35 109ft 0kts

Navigation Log

Ident Type
Flight plan parsing failed, navigation log unavailable